Asau, Samoa

2:34 AM WSST on September 18, 2014 (GMT +1300)
Faleolo International | Change Station
CLOSE
Current Station
Airport
Location: Faleolo,
Elevation: 16 ft
Nearby Weather Stations

Elev 16 ft 13.83 °S, 172.01 °W | Updated 34 minutes ago

Partly Cloudy
Partly Cloudy
73 °F
Feels Like 73 °F
N
0
Wind Variable Wind from North

Today
High -- | Low -- °F
--% Chance of Precip.
Yesterday
High -- | Low -- °F
Precip. -- in
6:22 AM 6:26 PM
Waning Crescent, 36% visible
Pressure 29.92 in
Visibility 6.2 miles
Clouds Few 3000 ft
Dew Point 73 °F
Humidity 100%
Rainfall 0.00 in
Snow Depth Not available.
UV 0 out of 12
Pollen Not available.
Air Quality Not available.
Flu Activity Not available.
METAR NSFA 171300Z 00000KT 9999 FEW030 23/23 Q1013

More Conditions Fewer Conditions

Pressure 29.92 in
Visibility 6.2 miles
Clouds Few 3000 ft
Dew Point 73 °F
Humidity 100%
Rainfall 0.00 in
Snow Depth Not available.
UV 0 out of 12
Pollen Not available.
Air Quality Not available.
Flu Activity Not available.
METAR NSFA 171300Z 00000KT 9999 FEW030 23/23 Q1013

More Conditions Fewer Conditions

10-Day Weather Forecast

Almanac

Astronomy

Sep. 18, 2014 Rise Set
Actual Time 6:22 AM WSST 6:26 PM WSST
Civil Twilight 6:01 AM WSST 6:47 PM WSST
Nautical Twilight 5:36 AM WSST 7:12 PM WSST
Astronomical Twilight 5:12 AM WSST 7:37 PM WSST
Moon 1:48 AM WSST (9/18) 1:35 PM WSST (9/18)
Length of Visible Light 12h 46m
Length of Day
12h 03m
Tomorrow will be 0m 44s longer.
Waning Crescent, 36% of the Moon is Illuminated
Sep 17
Waning Crescent
Sep 24
New
Oct 1
First Quarter
Oct 8
Full
Oct 15
Last Quarter

Yesterday's Extremes

Country Highs Country Lows

Community

WunderPhotos

Upload Photos

1,754,029 photos uploaded!

Nearby

Snow Depth

Not available.

Earthquake Activity

City Distance Mag. Time & Date
No recent earthquake activity has been reported nearby.
Minimum magnitude displayed is 2.5.

Coastal Water Temperatures

Place Temperature
No Stations Reporting

Nearby Weather Stations